Time;durP1;ratioP1;P1;durP2;ratioP2;P2;SDS_P1;SDS_P2;PMS_P1;PMS_P2;Temp;Humidity;BMP_temperature;BMP_pressure;BME280_temperature;BME280_humidity;BME280_pressure;Samples;Min_cycle;Max_cycle;Signal;HPM_P1;HPM_P2
2022/07/11 00:02:06;;;;;;;1.77;0.82;;;;;;;;;;5070631;28;20105;-66
2022/07/11 00:04:33;;;;;;;0.50;0.50;;;;;;;;;;5070921;28;20095;-67
2022/07/11 00:06:59;;;;;;;0.63;0.63;;;;;;;;;;5069706;28;20051;-66
2022/07/11 00:09:25;;;;;;;0.93;0.60;;;;;;;;;;5069954;28;20047;-65
2022/07/11 00:11:51;;;;;;;0.85;0.60;;;;;;;;;;5069164;28;20502;-66
2022/07/11 00:14:18;;;;;;;1.60;1.00;;;;;;;;;;5071121;28;20036;-67
2022/07/11 00:16:44;;;;;;;0.60;0.60;;;;;;;;;;5069399;28;20055;-60
2022/07/11 00:19:10;;;;;;;1.20;0.65;;;;;;;;;;5070762;28;20182;-66
2022/07/11 00:21:36;;;;;;;0.50;0.50;;;;;;;;;;5069551;28;20056;-65
2022/07/11 00:24:03;;;;;;;1.85;0.70;;;;;;;;;;5069706;28;20044;-64
2022/07/11 00:26:29;;;;;;;0.50;0.50;;;;;;;;;;5070942;28;20050;-66
2022/07/11 00:28:55;;;;;;;0.55;0.40;;;;;;;;;;5069616;28;20037;-65
2022/07/11 00:31:21;;;;;;;0.50;0.50;;;;;;;;;;5070577;28;20044;-66
2022/07/11 00:33:48;;;;;;;0.80;0.75;;;;;;;;;;5069652;28;20068;-63
2022/07/11 00:36:14;;;;;;;0.60;0.60;;;;;;;;;;5069595;28;20094;-66
2022/07/11 00:38:40;;;;;;;0.80;0.77;;;;;;;;;;5070022;28;20040;-66
2022/07/11 00:41:06;;;;;;;0.85;0.68;;;;;;;;;;5070403;28;20071;-66
2022/07/11 00:43:36;;;;;;;0.90;0.70;;;;;;;;;;5069866;28;20083;-66
2022/07/11 00:46:02;;;;;;;0.50;0.50;;;;;;;;;;5070084;28;20049;-65
2022/07/11 00:48:29;;;;;;;1.67;0.57;;;;;;;;;;5070366;28;20381;-65
2022/07/11 00:50:55;;;;;;;0.75;0.73;;;;;;;;;;5072754;28;20123;-65
2022/07/11 00:53:22;;;;;;;0.50;0.43;;;;;;;;;;5074121;28;20045;-65
2022/07/11 00:55:48;;;;;;;0.93;0.80;;;;;;;;;;5074709;28;20401;-61
2022/07/11 00:58:14;;;;;;;0.60;0.60;;;;;;;;;;5074293;28;20040;-66
2022/07/11 01:00:41;;;;;;;0.60;0.60;;;;;;;;;;5073154;28;20037;-66
2022/07/11 01:03:07;;;;;;;1.05;0.60;;;;;;;;;;5073338;28;20389;-66
2022/07/11 01:05:33;;;;;;;0.63;0.60;;;;;;;;;;5073468;28;20091;-66
2022/07/11 01:08:00;;;;;;;0.60;0.60;;;;;;;;;;5073237;28;20473;-67
2022/07/11 01:10:26;;;;;;;0.40;0.40;;;;;;;;;;5090451;28;20050;-66
2022/07/11 01:12:52;;;;;;;0.43;0.43;;;;;;;;;;5073392;28;20039;-65
2022/07/11 01:15:18;;;;;;;0.68;0.68;;;;;;;;;;5074223;28;20097;-66
2022/07/11 01:17:44;;;;;;;0.63;0.63;;;;;;;;;;5073654;28;20131;-66
2022/07/11 01:20:11;;;;;;;0.50;0.50;;;;;;;;;;5072778;28;20635;-66
2022/07/11 01:22:40;;;;;;;0.65;0.65;;;;;;;;;;5072945;28;20049;-66
2022/07/11 01:25:07;;;;;;;0.52;0.45;;;;;;;;;;5073681;28;20097;-66
2022/07/11 01:27:33;;;;;;;0.75;0.55;;;;;;;;;;5074212;28;20088;-66
2022/07/11 01:29:59;;;;;;;1.27;0.70;;;;;;;;;;5073510;28;20045;-66
2022/07/11 01:32:25;;;;;;;0.50;0.50;;;;;;;;;;5073910;28;20422;-66
2022/07/11 01:34:51;;;;;;;;;;;;;;;;;;5073811;28;20496;-66
2022/07/11 01:37:17;;;;;;;0.63;0.63;;;;;;;;;;5072631;28;19966;-66
2022/07/11 01:39:43;;;;;;;0.50;0.50;;;;;;;;;;5071209;28;20385;-64
2022/07/11 01:42:09;;;;;;;0.60;0.60;;;;;;;;;;5072451;28;20056;-65
2022/07/11 01:44:35;;;;;;;2.05;0.98;;;;;;;;;;5073839;28;20127;-65
2022/07/11 01:47:01;;;;;;;;;;;;;;;;;;5073634;28;20083;-65
2022/07/11 01:49:29;;;;;;;0.67;0.67;;;;;;;;;;5073348;28;19955;-62
2022/07/11 01:51:58;;;;;;;0.63;0.63;;;;;;;;;;5072249;28;20053;-61
2022/07/11 01:54:24;;;;;;;0.60;0.60;;;;;;;;;;5072659;28;20488;-65
2022/07/11 01:56:50;;;;;;;0.60;0.60;;;;;;;;;;5073609;28;20369;-66
2022/07/11 01:59:16;;;;;;;0.70;0.60;;;;;;;;;;5073099;28;20264;-66
2022/07/11 02:01:42;;;;;;;0.68;0.68;;;;;;;;;;5071922;28;20486;-65
2022/07/11 02:04:08;;;;;;;0.77;0.65;;;;;;;;;;5072922;28;20055;-66
2022/07/11 02:06:34;;;;;;;1.48;0.63;;;;;;;;;;5072409;28;20385;-65
2022/07/11 02:09:00;;;;;;;;;;;;;;;;;;5071329;28;20477;-66
2022/07/11 02:11:26;;;;;;;0.60;0.60;;;;;;;;;;5072755;28;20015;-65
2022/07/11 02:13:52;;;;;;;0.60;0.60;;;;;;;;;;5073400;28;20083;-65
2022/07/11 02:16:18;;;;;;;;;;;;;;;;;;5072983;28;20048;-66
2022/07/11 02:18:44;;;;;;;1.20;0.80;;;;;;;;;;5073187;28;19928;-67
2022/07/11 02:21:12;;;;;;;0.77;0.70;;;;;;;;;;5071084;28;20103;-66
2022/07/11 02:23:38;;;;;;;0.50;0.50;;;;;;;;;;5072189;28;20048;-66
2022/07/11 02:26:04;;;;;;;0.77;0.40;;;;;;;;;;5072533;28;20098;-66
2022/07/11 02:28:31;;;;;;;1.55;0.90;;;;;;;;;;5071686;28;20358;-65
2022/07/11 02:30:57;;;;;;;0.40;0.40;;;;;;;;;;5072612;28;20052;-64
2022/07/11 02:33:23;;;;;;;;;;;;;;;;;;5072810;28;20131;-65
2022/07/11 02:35:50;;;;;;;0.35;0.35;;;;;;;;;;5071943;28;19920;-65
2022/07/11 02:38:16;;;;;;;0.43;0.43;;;;;;;;;;5070811;28;20048;-65
2022/07/11 02:40:44;;;;;;;0.50;0.50;;;;;;;;;;5072882;28;20041;-65
2022/07/11 02:43:10;;;;;;;0.43;0.38;;;;;;;;;;5072325;28;20048;-65
2022/07/11 02:45:36;;;;;;;1.35;0.73;;;;;;;;;;5052319;28;20390;-66
2022/07/11 02:48:03;;;;;;;0.50;0.50;;;;;;;;;;5052042;28;20106;-65
2022/07/11 02:50:29;;;;;;;0.40;0.40;;;;;;;;;;5051988;28;20490;-66
2022/07/11 02:52:55;;;;;;;0.52;0.40;;;;;;;;;;5071707;28;20041;-66
2022/07/11 02:55:21;;;;;;;0.52;0.52;;;;;;;;;;5087657;28;20155;-65
2022/07/11 02:57:47;;;;;;;0.80;0.80;;;;;;;;;;5072478;28;20117;-64
2022/07/11 03:00:14;;;;;;;0.63;0.55;;;;;;;;;;5071587;28;20044;-64
2022/07/11 03:02:40;;;;;;;0.60;0.57;;;;;;;;;;5071677;28;20068;-65
2022/07/11 03:05:06;;;;;;;0.65;0.65;;;;;;;;;;5070685;28;20382;-64
2022/07/11 03:07:33;;;;;;;0.65;0.65;;;;;;;;;;5071347;28;20563;-65
2022/07/11 03:09:59;;;;;;;1.38;0.65;;;;;;;;;;5072260;28;20105;-66
2022/07/11 03:12:25;;;;;;;0.82;0.43;;;;;;;;;;5086246;28;20040;-66
2022/07/11 03:14:51;;;;;;;0.45;0.45;;;;;;;;;;5072191;28;20048;-66
2022/07/11 03:17:17;;;;;;;0.50;0.50;;;;;;;;;;5070364;28;20044;-66
2022/07/11 03:19:44;;;;;;;0.50;0.50;;;;;;;;;;5071784;28;20131;-66
2022/07/11 03:22:10;;;;;;;0.50;0.50;;;;;;;;;;5070542;28;20537;-66
2022/07/11 03:24:36;;;;;;;0.60;0.60;;;;;;;;;;5071168;28;20054;-66
2022/07/11 03:27:03;;;;;;;0.50;0.50;;;;;;;;;;5071590;28;20086;-60
2022/07/11 03:29:29;;;;;;;0.70;0.60;;;;;;;;;;5071623;28;20047;-65
2022/07/11 03:31:55;;;;;;;0.55;0.55;;;;;;;;;;5071341;28;20076;-66
2022/07/11 03:34:21;;;;;;;;;;;;;;;;;;5070846;28;20044;-66
2022/07/11 03:36:47;;;;;;;0.70;0.70;;;;;;;;;;5070360;28;19923;-66
2022/07/11 03:39:14;;;;;;;0.40;0.40;;;;;;;;;;5070098;28;20044;-66
2022/07/11 03:41:40;;;;;;;0.50;0.50;;;;;;;;;;5071590;28;20041;-66
2022/07/11 03:44:06;;;;;;;0.60;0.50;;;;;;;;;;5070563;28;20123;-60
2022/07/11 03:46:32;;;;;;;0.50;0.50;;;;;;;;;;5071393;28;20045;-66
2022/07/11 03:48:58;;;;;;;1.98;0.60;;;;;;;;;;5071328;28;20102;-67
2022/07/11 03:51:24;;;;;;;1.25;0.75;;;;;;;;;;5069898;28;20119;-67
2022/07/11 03:53:50;;;;;;;0.60;0.60;;;;;;;;;;5070553;28;20040;-67
2022/07/11 03:56:20;;;;;;;;;;;;;;;;;;5071283;28;20048;-66
2022/07/11 03:58:46;;;;;;;0.90;0.60;;;;;;;;;;5070763;28;20277;-66
2022/07/11 04:01:12;;;;;;;0.60;0.60;;;;;;;;;;5070296;28;20439;-66
2022/07/11 04:03:38;;;;;;;1.65;0.50;;;;;;;;;;5070829;28;20491;-66
2022/07/11 04:06:04;;;;;;;;;;;;;;;;;;5069319;28;20079;-65
2022/07/11 04:08:30;;;;;;;0.50;0.50;;;;;;;;;;5070034;28;19969;-66
2022/07/11 04:10:56;;;;;;;0.45;0.45;;;;;;;;;;5071170;28;20040;-67
2022/07/11 04:13:22;;;;;;;0.80;0.70;;;;;;;;;;5070019;28;20036;-66
2022/07/11 04:15:48;;;;;;;1.73;0.73;;;;;;;;;;5070303;28;20078;-66
2022/07/11 04:18:14;;;;;;;0.47;0.40;;;;;;;;;;5086219;28;20048;-66
2022/07/11 04:20:40;;;;;;;1.45;0.70;;;;;;;;;;5069043;28;20048;-64
2022/07/11 04:23:07;;;;;;;0.85;0.50;;;;;;;;;;5069612;28;20055;-61
2022/07/11 04:25:34;;;;;;;1.52;0.63;;;;;;;;;;5070475;28;20054;-66
2022/07/11 04:28:00;;;;;;;0.80;0.40;;;;;;;;;;5070867;28;20466;-68
2022/07/11 04:30:26;;;;;;;1.05;0.60;;;;;;;;;;5070213;28;20120;-66
2022/07/11 04:32:53;;;;;;;0.50;0.50;;;;;;;;;;5070614;28;20041;-66
2022/07/11 04:35:19;;;;;;;0.60;0.60;;;;;;;;;;5068115;28;20532;-65
2022/07/11 04:37:46;;;;;;;0.60;0.52;;;;;;;;;;5069843;28;20055;-67
2022/07/11 04:40:12;;;;;;;;;;;;;;;;;;5070261;28;20045;-65
2022/07/11 04:42:38;;;;;;;1.17;0.65;;;;;;;;;;5070957;28;19920;-67
2022/07/11 04:45:04;;;;;;;0.40;0.40;;;;;;;;;;5070112;28;20447;-66
2022/07/11 04:47:31;;;;;;;0.65;0.65;;;;;;;;;;5068551;28;20819;-67
2022/07/11 04:49:57;;;;;;;0.57;0.55;;;;;;;;;;5069274;28;20418;-65
2022/07/11 04:52:26;;;;;;;0.52;0.47;;;;;;;;;;5069492;28;20040;-64
2022/07/11 04:54:53;;;;;;;0.55;0.55;;;;;;;;;;5070163;28;20124;-65
2022/07/11 04:57:19;;;;;;;0.88;0.80;;;;;;;;;;5070117;28;20478;-67
2022/07/11 04:59:45;;;;;;;0.70;0.70;;;;;;;;;;5070559;28;20499;-66
2022/07/11 05:02:11;;;;;;;0.60;0.60;;;;;;;;;;5062075;28;20041;-60
2022/07/11 05:04:37;;;;;;;0.60;0.60;;;;;;;;;;5049913;28;20045;-66
2022/07/11 05:07:03;;;;;;;0.70;0.60;;;;;;;;;;5063787;28;20046;-65
2022/07/11 05:09:29;;;;;;;1.05;0.55;;;;;;;;;;5066438;28;20040;-66
2022/07/11 05:11:55;;;;;;;1.10;0.70;;;;;;;;;;5070385;28;20047;-67
2022/07/11 05:14:21;;;;;;;0.68;0.68;;;;;;;;;;5070025;28;20367;-67
2022/07/11 05:16:47;;;;;;;0.55;0.55;;;;;;;;;;5070188;28;20453;-67
2022/07/11 05:19:13;;;;;;;0.57;0.57;;;;;;;;;;5069973;28;20044;-61
2022/07/11 05:21:39;;;;;;;0.60;0.60;;;;;;;;;;5050064;28;20126;-66
2022/07/11 05:24:06;;;;;;;0.52;0.52;;;;;;;;;;5069330;28;20052;-67
2022/07/11 05:26:32;;;;;;;1.33;0.40;;;;;;;;;;5069361;28;20048;-67
2022/07/11 05:28:58;;;;;;;0.82;0.60;;;;;;;;;;5068062;28;20489;-66
2022/07/11 05:31:24;;;;;;;0.68;0.68;;;;;;;;;;5069402;28;20389;-67
2022/07/11 05:33:50;;;;;;;0.40;0.40;;;;;;;;;;5067624;28;20040;-67
2022/07/11 05:36:16;;;;;;;0.50;0.50;;;;;;;;;;5051049;28;20040;-61
2022/07/11 05:38:42;;;;;;;0.60;0.60;;;;;;;;;;5053032;28;20106;-66
2022/07/11 05:41:08;;;;;;;0.43;0.40;;;;;;;;;;5060596;28;20105;-66
2022/07/11 05:43:34;;;;;;;0.77;0.60;;;;;;;;;;5073013;28;20052;-64
2022/07/11 05:46:04;;;;;;;0.68;0.68;;;;;;;;;;5073667;28;20040;-65
2022/07/11 05:48:30;;;;;;;0.40;0.40;;;;;;;;;;5073141;28;20040;-64
2022/07/11 05:50:56;;;;;;;0.38;0.38;;;;;;;;;;5072251;28;20394;-64
2022/07/11 05:53:22;;;;;;;0.40;0.40;;;;;;;;;;5070753;28;20453;-65
2022/07/11 05:55:48;;;;;;;0.93;0.50;;;;;;;;;;5073614;28;20474;-64
2022/07/11 05:58:14;;;;;;;0.77;0.77;;;;;;;;;;5073581;28;20494;-64
2022/07/11 06:00:40;;;;;;;0.65;0.60;;;;;;;;;;5072828;28;20045;-65
2022/07/11 06:03:06;;;;;;;1.80;0.70;;;;;;;;;;5073371;28;20055;-64
2022/07/11 06:05:32;;;;;;;2.80;1.00;;;;;;;;;;5071821;28;20048;-64
2022/07/11 06:10:43;;;;;;;1.63;1.10;;;;;;;;;;5072550;28;20048;-65
2022/07/11 06:13:09;;;;;;;1.55;1.00;;;;;;;;;;5072303;28;20115;-64
2022/07/11 06:15:36;;;;;;;1.80;1.35;;;;;;;;;;5072560;28;20044;-69
2022/07/11 06:18:02;;;;;;;2.20;1.30;;;;;;;;;;5073171;28;20049;-66
2022/07/11 06:20:28;;;;;;;2.08;1.42;;;;;;;;;;5071460;28;20048;-67
2022/07/11 06:22:54;;;;;;;2.80;1.50;;;;;;;;;;5072042;28;20498;-66
2022/07/11 06:25:20;;;;;;;7.18;1.60;;;;;;;;;;5073052;28;20044;-67
2022/07/11 06:27:46;;;;;;;;;;;;;;;;;;5073240;28;20044;-64
2022/07/11 06:30:12;;;;;;;2.67;1.48;;;;;;;;;;5072896;28;20242;-68
2022/07/11 06:32:39;;;;;;;2.67;1.55;;;;;;;;;;5072299;28;20036;-70
2022/07/11 06:35:07;;;;;;;2.40;1.55;;;;;;;;;;5071451;28;20036;-67
2022/07/11 06:37:33;;;;;;;2.75;1.60;;;;;;;;;;5071368;28;20048;-65
2022/07/11 06:39:59;;;;;;;6.65;2.10;;;;;;;;;;5073053;28;20040;-69
2022/07/11 06:42:25;;;;;;;2.85;1.75;;;;;;;;;;5072371;28;20040;-63
2022/07/11 06:44:52;;;;;;;3.08;1.85;;;;;;;;;;5072113;28;20493;-68
2022/07/11 06:47:18;;;;;;;3.30;2.10;;;;;;;;;;5072055;28;20055;-69
2022/07/11 06:49:44;;;;;;;2.63;1.70;;;;;;;;;;5070981;28;20504;-68
2022/07/11 06:52:10;;;;;;;4.80;2.65;;;;;;;;;;5071256;28;20501;-67
2022/07/11 06:54:36;;;;;;;;;;;;;;;;;;5071102;28;20036;-66
2022/07/11 06:57:02;;;;;;;2.83;1.80;;;;;;;;;;5071946;28;19921;-67
2022/07/11 06:59:28;;;;;;;4.32;1.90;;;;;;;;;;5071308;28;20036;-63
2022/07/11 07:01:54;;;;;;;4.28;2.20;;;;;;;;;;5071219;28;20036;-68
2022/07/11 07:04:20;;;;;;;5.22;2.05;;;;;;;;;;5071654;28;20067;-69
2022/07/11 07:06:47;;;;;;;4.32;2.13;;;;;;;;;;5068190;28;20123;-66
2022/07/11 07:09:13;;;;;;;3.20;1.95;;;;;;;;;;5061021;28;20059;-68
2022/07/11 07:11:39;;;;;;;3.13;1.90;;;;;;;;;;5069874;28;20060;-65
2022/07/11 07:14:05;;;;;;;3.08;1.75;;;;;;;;;;5068584;28;20041;-64
2022/07/11 07:16:32;;;;;;;5.07;2.10;;;;;;;;;;5067961;28;20044;-60
2022/07/11 07:18:58;;;;;;;4.13;1.80;;;;;;;;;;5069769;28;20119;-64
2022/07/11 07:21:25;;;;;;;3.90;2.10;;;;;;;;;;5068751;28;20137;-62
2022/07/11 07:23:52;;;;;;;4.40;1.92;;;;;;;;;;5070750;28;20102;-64
2022/07/11 07:26:18;;;;;;;5.47;2.00;;;;;;;;;;5069868;28;20753;-63
2022/07/11 07:28:45;;;;;;;4.50;2.05;;;;;;;;;;5068909;28;20052;-64
2022/07/11 07:31:11;;;;;;;3.63;1.63;;;;;;;;;;5069746;28;20166;-64
2022/07/11 07:33:38;;;;;;;3.97;1.63;;;;;;;;;;5068204;28;20055;-64
2022/07/11 07:36:04;;;;;;;3.40;1.77;;;;;;;;;;5068653;28;20127;-65
2022/07/11 07:38:30;;;;;;;3.33;1.90;;;;;;;;;;5067675;28;20040;-65
2022/07/11 07:40:56;;;;;;;3.40;1.70;;;;;;;;;;5070199;28;20032;-65
2022/07/11 07:43:22;;;;;;;2.15;1.50;;;;;;;;;;5071248;28;20044;-66
2022/07/11 07:45:48;;;;;;;3.13;1.63;;;;;;;;;;5068608;28;20045;-66
2022/07/11 07:48:14;;;;;;;0.65;0.65;;;;;;;;;;5057339;28;20040;-68
2022/07/11 07:50:42;;;;;;;0.70;0.65;;;;;;;;;;5061572;28;20072;-68
2022/07/11 07:53:08;;;;;;;1.65;0.77;;;;;;;;;;5049886;28;20067;-65
2022/07/11 07:55:34;;;;;;;1.02;0.80;;;;;;;;;;5050372;28;20044;-65
2022/07/11 07:58:00;;;;;;;0.70;0.70;;;;;;;;;;5051127;28;20448;-65
2022/07/11 08:03:11;;;;;;;4.43;0.88;;;;;;;;;;5051760;28;20441;-67
2022/07/11 08:05:37;;;;;;;0.90;0.50;;;;;;;;;;5069113;28;20040;-64
2022/07/11 08:08:03;;;;;;;1.63;0.73;;;;;;;;;;5056149;28;20055;-65
2022/07/11 08:10:30;;;;;;;0.82;0.50;;;;;;;;;;5070589;28;20068;-66
2022/07/11 08:12:56;;;;;;;0.70;0.60;;;;;;;;;;5053369;28;20041;-67
2022/07/11 08:15:22;;;;;;;0.70;0.70;;;;;;;;;;5049979;28;20085;-66
2022/07/11 08:17:48;;;;;;;2.63;0.60;;;;;;;;;;5076419;28;20053;-66
2022/07/11 08:20:15;;;;;;;0.70;0.63;;;;;;;;;;5059180;28;20052;-67
2022/07/11 08:22:41;;;;;;;0.93;0.63;;;;;;;;;;5057238;28;20056;-66
2022/07/11 08:25:07;;;;;;;0.90;0.55;;;;;;;;;;5069039;28;20520;-67
2022/07/11 08:27:35;;;;;;;0.40;0.40;;;;;;;;;;5065971;28;20068;-60
2022/07/11 08:30:03;;;;;;;0.98;0.70;;;;;;;;;;5069328;28;20072;-62
2022/07/11 08:32:29;;;;;;;2.83;0.70;;;;;;;;;;5058221;28;20541;-64
2022/07/11 08:34:55;;;;;;;0.40;0.35;;;;;;;;;;5049730;28;20068;-66
2022/07/11 08:37:21;;;;;;;1.95;0.73;;;;;;;;;;5049956;28;20123;-71
2022/07/11 08:39:47;;;;;;;0.52;0.52;;;;;;;;;;5048788;28;20037;-71
2022/07/11 08:42:13;;;;;;;1.15;0.63;;;;;;;;;;5050653;28;20114;-71
2022/07/11 08:44:41;;;;;;;0.55;0.55;;;;;;;;;;5066417;28;20040;-70
2022/07/11 08:47:07;;;;;;;1.55;0.85;;;;;;;;;;5067205;28;20044;-74
2022/07/11 08:49:33;;;;;;;1.35;0.55;;;;;;;;;;5066065;28;20048;-63
2022/07/11 08:51:59;;;;;;;0.88;0.70;;;;;;;;;;5067015;28;20043;-70
2022/07/11 08:54:26;;;;;;;3.00;0.50;;;;;;;;;;5066099;28;20162;-72
2022/07/11 08:56:54;;;;;;;2.30;0.55;;;;;;;;;;5068949;28;20037;-70
2022/07/11 08:59:20;;;;;;;0.85;0.43;;;;;;;;;;5066256;28;20056;-71
2022/07/11 09:01:46;;;;;;;0.40;0.40;;;;;;;;;;5068343;28;20036;-71
2022/07/11 09:04:13;;;;;;;0.57;0.47;;;;;;;;;;5069373;28;20044;-71
2022/07/11 09:06:40;;;;;;;1.75;0.30;;;;;;;;;;5056354;28;20055;-71
2022/07/11 09:09:06;;;;;;;0.30;0.30;;;;;;;;;;5051218;28;20112;-70
2022/07/11 09:11:51;;;;;;;0.80;0.45;;;;;;;;;;5063053;28;20041;-70
2022/07/11 09:14:27;;;;;;;0.38;0.28;;;;;;;;;;5060336;28;20049;-70
2022/07/11 09:16:57;;;;;;;1.38;0.55;;;;;;;;;;5058007;28;20048;-68
2022/07/11 09:19:24;;;;;;;0.63;0.40;;;;;;;;;;5055295;28;20066;-69
2022/07/11 09:27:41;;;;;;;2.58;0.38;;;;;;;;;;5071316;28;20059;-60
2022/07/11 09:30:20;;;;;;;1.23;0.30;;;;;;;;;;5069792;28;20045;-67
2022/07/11 09:32:54;;;;;;;0.20;0.20;;;;;;;;;;5061512;28;20086;-66
2022/07/11 09:35:21;;;;;;;0.10;0.10;;;;;;;;;;5065482;28;20048;-66
2022/07/11 09:37:48;;;;;;;0.30;0.20;;;;;;;;;;5069521;28;20533;-65
2022/07/11 09:40:14;;;;;;;0.20;0.20;;;;;;;;;;5063917;28;20575;-65
2022/07/11 09:42:50;;;;;;;1.05;0.40;;;;;;;;;;5068201;28;20094;-59
2022/07/11 09:45:17;;;;;;;0.50;0.32;;;;;;;;;;5062750;28;20080;-73
2022/07/11 09:47:47;;;;;;;1.25;0.38;;;;;;;;;;5062499;28;20123;-67
2022/07/11 09:50:13;;;;;;;1.65;0.30;;;;;;;;;;5068406;28;20117;-74
2022/07/11 09:52:42;;;;;;;0.43;0.20;;;;;;;;;;5068978;28;20496;-73
2022/07/11 09:55:08;;;;;;;0.25;0.20;;;;;;;;;;5068229;28;20053;-69
2022/07/11 09:57:34;;;;;;;1.95;0.20;;;;;;;;;;5070053;28;20516;-67
2022/07/11 10:00:01;;;;;;;1.65;0.45;;;;;;;;;;5071232;28;20040;-72
2022/07/11 10:02:28;;;;;;;0.10;0.10;;;;;;;;;;5071690;28;20035;-72
2022/07/11 10:04:54;;;;;;;0.20;0.20;;;;;;;;;;5070834;28;20045;-72
2022/07/11 10:07:20;;;;;;;;;;;;;;;;;;5064244;28;20482;-70
2022/07/11 10:09:46;;;;;;;0.20;0.20;;;;;;;;;;5068120;28;19928;-69
2022/07/11 10:12:12;;;;;;;0.20;0.20;;;;;;;;;;5069525;28;20111;-72
2022/07/11 10:14:39;;;;;;;1.45;0.47;;;;;;;;;;5072051;28;20428;-72
2022/07/11 10:17:19;;;;;;;0.38;0.30;;;;;;;;;;5065685;28;20037;-71
2022/07/11 10:19:52;;;;;;;0.10;0.10;;;;;;;;;;5070754;28;20040;-63
2022/07/11 10:22:44;;;;;;;0.57;0.40;;;;;;;;;;5068257;28;20056;-72
2022/07/11 10:25:18;;;;;;;1.27;0.28;;;;;;;;;;5044448;28;20106;-71
2022/07/11 10:27:46;;;;;;;0.10;0.10;;;;;;;;;;5070188;28;20048;-70
2022/07/11 10:30:13;;;;;;;0.20;0.20;;;;;;;;;;5068452;28;20103;-72
2022/07/11 10:32:57;;;;;;;0.20;0.20;;;;;;;;;;5070443;28;20083;-73
2022/07/11 10:35:23;;;;;;;0.20;0.20;;;;;;;;;;5069791;28;20837;-67
2022/07/11 10:37:52;;;;;;;0.10;0.10;;;;;;;;;;5069761;28;20079;-71
2022/07/11 10:40:37;;;;;;;0.17;0.17;;;;;;;;;;5071151;28;20044;-73
2022/07/11 10:43:03;;;;;;;1.20;0.30;;;;;;;;;;5069814;28;21391;-67
2022/07/11 10:45:29;;;;;;;0.20;0.20;;;;;;;;;;5074099;28;20504;-72
2022/07/11 10:48:10;;;;;;;0.43;0.20;;;;;;;;;;5068700;28;20490;-74
2022/07/11 10:50:38;;;;;;;0.13;0.10;;;;;;;;;;5068106;28;20476;-71
2022/07/11 10:53:20;;;;;;;0.28;0.28;;;;;;;;;;5064293;28;20048;-73
2022/07/11 10:55:49;;;;;;;0.20;0.20;;;;;;;;;;5070020;28;20394;-73
2022/07/11 10:58:24;;;;;;;0.75;0.10;;;;;;;;;;5069720;28;20052;-68
2022/07/11 11:01:08;;;;;;;0.20;0.20;;;;;;;;;;5069526;28;20434;-63
2022/07/11 11:03:34;;;;;;;0.43;0.22;;;;;;;;;;5069182;28;20044;-69
2022/07/11 11:06:01;;;;;;;0.10;0.10;;;;;;;;;;5066126;28;20382;-72
2022/07/11 11:08:35;;;;;;;0.20;0.20;;;;;;;;;;5069033;28;20054;-70
2022/07/11 11:11:03;;;;;;;0.10;0.10;;;;;;;;;;5066843;28;20068;-69
2022/07/11 11:13:29;;;;;;;0.13;0.10;;;;;;;;;;5064585;28;20028;-71
2022/07/11 11:16:02;;;;;;;0.20;0.20;;;;;;;;;;5059480;28;20124;-69
2022/07/11 11:18:36;;;;;;;0.13;0.13;;;;;;;;;;5065402;28;20036;-72
2022/07/11 11:21:02;;;;;;;0.28;0.28;;;;;;;;;;5048066;28;20512;-71
2022/07/11 11:23:32;;;;;;;0.10;0.10;;;;;;;;;;5048609;28;20037;-72
2022/07/11 11:26:04;;;;;;;0.20;0.20;;;;;;;;;;5064849;28;20050;-72
2022/07/11 11:28:30;;;;;;;0.13;0.13;;;;;;;;;;5057964;28;20382;-70
2022/07/11 11:30:57;;;;;;;0.17;0.17;;;;;;;;;;5068956;28;20052;-71
2022/07/11 11:33:28;;;;;;;0.20;0.10;;;;;;;;;;5065883;28;20036;-66
2022/07/11 11:36:00;;;;;;;0.20;0.20;;;;;;;;;;5065671;28;20049;-63
2022/07/11 11:38:26;;;;;;;0.50;0.32;;;;;;;;;;5067482;28;20493;-74
2022/07/11 11:40:52;;;;;;;0.10;0.10;;;;;;;;;;5069734;28;20055;-73
2022/07/11 11:43:22;;;;;;;0.10;0.10;;;;;;;;;;5066628;28;20469;-71
2022/07/11 11:45:52;;;;;;;0.80;0.30;;;;;;;;;;5084430;28;20489;-73
2022/07/11 11:48:28;;;;;;;0.30;0.30;;;;;;;;;;5070013;28;20560;-64
2022/07/11 11:51:01;;;;;;;0.63;0.60;;;;;;;;;;5069809;28;20444;-74
2022/07/11 11:53:27;;;;;;;0.43;0.30;;;21.60;90.10;;;;;;5068689;28;20051;-67
2022/07/11 11:55:52;;;;;;;;;;;21.70;90.30;;;;;;5068833;28;20048;-66
2022/07/11 11:58:18;;;;;;;0.20;0.20;;;21.70;90.40;;;;;;5069628;28;20027;-73
2022/07/11 12:00:56;;;;;;;0.30;0.30;;;21.70;90.30;;;;;;5066550;28;20052;-69
2022/07/11 12:03:22;;;;;;;0.88;0.43;;;21.70;90.30;;;;;;5066196;28;20033;-72
2022/07/11 12:05:57;;;;;;;;;;;21.70;90.30;;;;;;5066847;28;20047;-72
2022/07/11 12:08:29;;;;;;;0.30;0.22;;;21.70;90.30;;;;;;5065909;28;19974;-72
2022/07/11 12:10:56;;;;;;;0.63;0.32;;;21.70;90.20;;;;;;5067623;28;20625;-72
2022/07/11 12:13:22;;;;;;;0.40;0.30;;;21.70;90.20;;;;;;5066306;28;20037;-74
2022/07/11 12:18:41;;;;;;;0.40;0.28;;;21.70;90.20;;;;;;5053074;28;20059;-74
2022/07/11 12:21:13;;;;;;;0.50;0.40;;;21.70;90.20;;;;;;5069283;28;20060;-74
2022/07/11 12:23:39;;;;;;;0.30;0.30;;;21.70;90.20;;;;;;5069477;28;20044;-71
2022/07/11 12:26:05;;;;;;;0.77;0.50;;;21.70;90.20;;;;;;5069941;28;20044;-70
2022/07/11 12:28:34;;;;;;;0.28;0.17;;;21.70;90.20;;;;;;5071000;28;20438;-72
2022/07/11 12:31:01;;;;;;;0.90;0.30;;;21.70;90.20;;;;;;5070380;28;20385;-62
2022/07/11 12:33:27;;;;;;;0.30;0.30;;;21.70;90.20;;;;;;5069828;28;20032;-70
2022/07/11 12:36:03;;;;;;;1.35;0.40;;;21.70;90.20;;;;;;5069173;28;20045;-72
2022/07/11 12:38:51;;;;;;;;;;;21.70;90.20;;;;;;5070302;28;20076;-72
2022/07/11 12:41:17;;;;;;;1.13;0.45;;;21.70;90.20;;;;;;5065960;28;20011;-71
2022/07/11 12:46:38;;;;;;;0.32;0.32;;;21.70;90.20;;;;;;5056423;28;20426;-69
2022/07/11 12:49:05;;;;;;;0.32;0.32;;;21.70;90.20;;;;;;5068371;28;20532;-70
2022/07/11 12:51:39;;;;;;;0.90;0.40;;;21.70;90.40;;;;;;5067127;28;20438;-71
2022/07/11 12:54:09;;;;;;;0.52;0.45;;;21.70;90.50;;;;;;5069156;28;20047;-71
2022/07/11 12:56:36;;;;;;;0.47;0.40;;;21.70;90.60;;;;;;5060751;28;20052;-70
2022/07/11 12:59:03;;;;;;;0.30;0.30;;;21.70;90.60;;;;;;5058088;28;20036;-62
2022/07/11 13:01:30;;;;;;;1.42;0.40;;;21.60;90.60;;;;;;5061774;28;20378;-71
2022/07/11 13:03:56;;;;;;;1.08;0.40;;;21.60;90.70;;;;;;5068682;28;20098;-72
2022/07/11 13:09:07;;;;;;;0.30;0.30;;;21.70;91.00;;;;;;5050942;28;20516;-72
2022/07/11 13:11:32;;;;;;;0.47;0.47;;;21.70;90.70;;;;;;5063930;28;20685;-71
2022/07/11 13:13:58;;;;;;;;;;;21.70;90.70;;;;;;5057829;28;20036;-73
2022/07/11 13:16:24;;;;;;;0.52;0.38;;;21.70;90.80;;;;;;5062717;28;20240;-71
2022/07/11 13:18:50;;;;;;;2.00;0.68;;;21.70;90.70;;;;;;5049974;28;20079;-71
2022/07/11 13:21:16;;;;;;;0.30;0.30;;;21.70;90.70;;;;;;5054447;28;20355;-71
2022/07/11 13:23:43;;;;;;;0.82;0.60;;;21.70;90.70;;;;;;5059634;28;20121;-73
2022/07/11 13:26:10;;;;;;;0.20;0.20;;;21.70;90.70;;;;;;5062431;28;20502;-71
2022/07/11 13:28:37;;;;;;;1.30;0.30;;;21.70;90.70;;;;;;5065460;28;20090;-70
2022/07/11 13:31:06;;;;;;;0.20;0.20;;;21.70;90.70;;;;;;5068298;28;20490;-70
2022/07/11 13:33:32;;;;;;;2.22;0.38;;;21.70;90.70;;;;;;5061229;28;20040;-71
2022/07/11 13:35:58;;;;;;;0.68;0.40;;;21.70;90.60;;;;;;5067646;28;20041;-71
2022/07/11 13:38:24;;;;;;;0.55;0.32;;;21.70;90.60;;;;;;5051946;28;20110;-72
2022/07/11 13:40:50;;;;;;;0.30;0.30;;;21.70;90.60;;;;;;5060321;28;20036;-66
2022/07/11 13:43:16;;;;;;;;;;;21.70;90.60;;;;;;5058115;28;20037;-73
2022/07/11 13:45:47;;;;;;;0.35;0.35;;;21.70;90.70;;;;;;5060560;28;20320;-72
2022/07/11 13:48:13;;;;;;;0.38;0.38;;;21.70;90.60;;;;;;5063744;28;20117;-70
2022/07/11 13:50:39;;;;;;;0.93;0.50;;;21.70;90.60;;;;;;5058377;28;20102;-73
2022/07/11 13:53:05;;;;;;;0.63;0.32;;;21.70;90.60;;;;;;5058168;28;20041;-62
2022/07/11 13:55:31;;;;;;;3.65;0.43;;;21.70;90.60;;;;;;5061181;28;20044;-70
2022/07/11 13:57:59;;;;;;;0.50;0.28;;;21.70;90.60;;;;;;5060324;28;20643;-70
2022/07/11 14:00:25;;;;;;;0.90;0.50;;;21.70;90.60;;;;;;5064801;28;20119;-72
2022/07/11 14:02:52;;;;;;;0.32;0.32;;;21.70;90.60;;;;;;5057021;28;20041;-71
2022/07/11 14:05:18;;;;;;;0.28;0.28;;;21.70;90.60;;;;;;5065643;28;20064;-66
2022/07/11 14:07:47;;;;;;;0.85;0.50;;;21.70;90.60;;;;;;5066663;28;20371;-71
2022/07/11 14:10:14;;;;;;;0.30;0.20;;;21.70;90.60;;;;;;5069509;28;20029;-69
2022/07/11 14:12:40;;;;;;;0.47;0.30;;;21.70;90.60;;;;;;5065283;28;20485;-65
2022/07/11 14:15:08;;;;;;;1.00;0.45;;;21.70;90.60;;;;;;5069770;28;20314;-70
2022/07/11 14:17:34;;;;;;;0.80;0.40;;;21.70;90.50;;;;;;5065711;28;20045;-68
2022/07/11 14:20:00;;;;;;;0.22;0.22;;;21.70;90.50;;;;;;5069435;28;20040;-67
2022/07/11 14:22:26;;;;;;;0.98;0.38;;;21.70;90.50;;;;;;5069313;28;20401;-70
2022/07/11 14:24:51;;;;;;;0.28;0.28;;;21.70;90.50;;;;;;5069573;28;20040;-70
2022/07/11 14:27:17;;;;;;;0.30;0.30;;;21.70;90.50;;;;;;5066520;28;20071;-72
2022/07/11 14:29:44;;;;;;;0.32;0.32;;;21.70;90.50;;;;;;5066860;28;20040;-73
2022/07/11 14:32:12;;;;;;;0.30;0.30;;;21.70;90.50;;;;;;5069982;28;20435;-62
2022/07/11 14:34:38;;;;;;;0.30;0.30;;;21.70;90.50;;;;;;5069910;28;20054;-72
2022/07/11 14:37:04;;;;;;;2.55;0.73;;;21.70;90.50;;;;;;5068699;28;20044;-73
2022/07/11 14:39:31;;;;;;;0.38;0.38;;;21.70;90.50;;;;;;5063913;28;20399;-71
2022/07/11 14:41:57;;;;;;;0.40;0.40;;;21.70;90.50;;;;;;5069388;28;20134;-70
2022/07/11 14:44:23;;;;;;;0.80;0.60;;;21.70;90.50;;;;;;5069838;28;20071;-66